createdAt,value
2023-04-25T00:00:18.454Z,17.20
2023-04-25T00:02:45.428Z,18.03
2023-04-25T00:05:12.645Z,17.87
2023-04-25T00:07:41.466Z,19.90
2023-04-25T00:10:09.185Z,16.70
2023-04-25T00:12:36.928Z,19.13
2023-04-25T00:15:04.201Z,17.63
2023-04-25T00:17:31.046Z,19.50
2023-04-25T00:19:59.290Z,19.00
2023-04-25T00:22:26.114Z,20.47
2023-04-25T00:24:54.381Z,17.60
2023-04-25T00:27:21.172Z,19.23
2023-04-25T00:29:47.965Z,19.23
2023-04-25T00:32:14.764Z,18.13
2023-04-25T00:34:41.536Z,17.63
2023-04-25T00:37:08.379Z,21.57
2023-04-25T00:39:35.160Z,18.13
2023-04-25T00:42:03.095Z,19.83
2023-04-25T00:44:31.668Z,18.77
2023-04-25T00:46:59.084Z,17.00
2023-04-25T00:49:25.972Z,19.43
2023-04-25T00:51:52.751Z,21.00
2023-04-25T00:54:19.631Z,19.20
2023-04-25T00:56:46.428Z,18.83
2023-04-25T00:59:14.212Z,19.00
2023-04-25T01:01:42.682Z,18.30
2023-04-25T01:04:09.647Z,18.57
2023-04-25T01:06:36.659Z,19.00
2023-04-25T01:09:04.489Z,19.20
2023-04-25T01:11:31.417Z,17.90
2023-04-25T01:13:58.465Z,18.87
2023-04-25T01:16:25.973Z,20.57
2023-04-25T01:18:52.905Z,19.30
2023-04-25T01:21:19.878Z,20.37
2023-04-25T01:23:47.374Z,17.70
2023-04-25T01:26:14.325Z,18.90
2023-04-25T01:28:42.371Z,19.57
2023-04-25T01:31:10.290Z,21.23
2023-04-25T01:33:37.319Z,22.13
2023-04-25T01:36:04.637Z,18.43
2023-04-25T01:38:31.485Z,20.27
2023-04-25T01:40:58.754Z,20.10
2023-04-25T01:43:27.447Z,18.63
2023-04-25T01:45:54.629Z,19.90
2023-04-25T01:48:21.651Z,19.03
2023-04-25T01:50:48.685Z,19.17
2023-04-25T01:53:15.847Z,20.80
2023-04-25T01:55:42.835Z,21.73
2023-04-25T01:58:14.013Z,20.13
2023-04-25T02:00:41.898Z,19.70
2023-04-25T02:03:09.990Z,21.43
2023-04-25T02:05:38.245Z,19.53
2023-04-25T02:08:09.035Z,18.13
2023-04-25T02:10:36.584Z,17.33
2023-04-25T02:13:03.947Z,18.03
2023-04-25T02:15:30.906Z,17.13
2023-04-25T02:17:58.921Z,19.33
2023-04-25T02:20:26.033Z,16.70
2023-04-25T02:22:53.263Z,16.23
2023-04-25T02:25:21.355Z,17.67
2023-04-25T02:27:49.510Z,17.03
2023-04-25T02:30:16.616Z,17.87
2023-04-25T02:32:43.651Z,20.23
2023-04-25T02:35:11.189Z,18.93
2023-04-25T02:37:39.613Z,18.37
2023-04-25T02:40:07.561Z,20.63
2023-04-25T02:42:34.580Z,16.07
2023-04-25T02:45:01.531Z,16.23
2023-04-25T02:47:28.578Z,17.37
2023-04-25T02:49:55.709Z,17.87
2023-04-25T02:52:22.491Z,19.17
2023-04-25T02:54:49.506Z,16.60
2023-04-25T02:57:16.322Z,16.40
2023-04-25T02:59:43.112Z,18.27
2023-04-25T03:02:10.818Z,17.03
2023-04-25T03:04:37.977Z,16.10
2023-04-25T03:07:05.401Z,17.23
2023-04-25T03:09:32.302Z,15.93
2023-04-25T03:11:59.151Z,16.93
2023-04-25T03:14:25.939Z,18.47
2023-04-25T03:16:52.830Z,15.23
2023-04-25T03:19:19.778Z,15.70
2023-04-25T03:21:46.628Z,18.67
2023-04-25T03:24:13.555Z,17.23
2023-04-25T03:26:40.435Z,18.10
2023-04-25T03:29:07.374Z,18.13
2023-04-25T03:31:34.288Z,14.67
2023-04-25T03:34:01.268Z,15.37
2023-04-25T03:36:28.037Z,14.07
2023-04-25T03:38:54.820Z,15.10
2023-04-25T03:41:22.843Z,15.13
2023-04-25T03:43:50.282Z,14.23
2023-04-25T03:46:17.419Z,14.40
2023-04-25T03:48:44.201Z,15.43
2023-04-25T03:51:10.983Z,15.60
2023-04-25T03:53:38.409Z,14.40
2023-04-25T03:56:05.576Z,13.37
2023-04-25T03:58:32.589Z,12.93
2023-04-25T04:00:59.398Z,12.53
2023-04-25T04:03:26.658Z,12.03
2023-04-25T04:05:54.826Z,11.67
2023-04-25T04:08:21.780Z,13.23
2023-04-25T04:10:48.652Z,12.17
2023-04-25T04:13:15.562Z,11.83
2023-04-25T04:15:42.537Z,12.57
2023-04-25T04:18:09.359Z,10.27
2023-04-25T04:20:36.183Z,10.40
2023-04-25T04:23:03.036Z,12.73
2023-04-25T04:25:31.093Z,12.30
2023-04-25T04:27:58.480Z,11.37
2023-04-25T04:30:26.417Z,12.37
2023-04-25T04:32:53.540Z,11.37
2023-04-25T04:35:20.440Z,11.83
2023-04-25T04:37:47.318Z,11.30
2023-04-25T04:40:16.621Z,12.90
2023-04-25T04:42:44.296Z,11.73
2023-04-25T04:45:11.383Z,11.53
2023-04-25T04:47:40.522Z,15.07
2023-04-25T04:50:10.374Z,29.07
2023-04-25T04:52:38.341Z,11.53
2023-04-25T04:55:09.190Z,12.43
2023-04-25T04:57:36.879Z,12.03
2023-04-25T05:00:06.176Z,10.87
2023-04-25T05:02:33.124Z,11.23
2023-04-25T05:05:00.064Z,12.17
2023-04-25T05:07:26.992Z,11.17
2023-04-25T05:09:53.753Z,12.30
2023-04-25T05:12:20.667Z,11.87
2023-04-25T05:14:47.468Z,11.40
2023-04-25T05:17:14.299Z,13.70
2023-04-25T05:19:41.307Z,13.30
2023-04-25T05:22:08.203Z,12.10
2023-04-25T05:24:35.100Z,15.77
2023-04-25T05:27:01.949Z,14.97
2023-04-25T05:29:28.788Z,14.13
2023-04-25T05:31:55.750Z,13.40
2023-04-25T05:34:22.655Z,14.93
2023-04-25T05:36:49.800Z,16.03
2023-04-25T05:39:18.417Z,14.90
2023-04-25T05:41:45.506Z,14.60
2023-04-25T05:44:12.287Z,15.07
2023-04-25T05:46:39.135Z,13.87
2023-04-25T05:49:07.207Z,14.83
2023-04-25T05:51:34.145Z,14.10
2023-04-25T05:54:01.045Z,13.43
2023-04-25T05:56:27.991Z,14.07
2023-04-25T05:58:54.853Z,13.93
2023-04-25T06:01:22.540Z,14.63
2023-04-25T06:03:49.886Z,15.10
2023-04-25T06:06:17.290Z,14.77
2023-04-25T06:08:44.165Z,13.17
2023-04-25T06:11:10.985Z,13.80
2023-04-25T06:13:37.815Z,12.90
2023-04-25T06:16:05.890Z,14.93
2023-04-25T06:18:39.258Z,15.40
2023-04-25T06:21:06.361Z,14.83
2023-04-25T06:23:33.487Z,18.63
2023-04-25T06:26:00.523Z,16.97
2023-04-25T06:28:27.544Z,16.03
2023-04-25T06:30:54.361Z,16.30
2023-04-25T06:33:28.155Z,14.10
2023-04-25T06:35:55.393Z,16.13
2023-04-25T06:38:22.260Z,17.83
2023-04-25T06:40:49.589Z,18.30
2023-04-25T06:43:16.534Z,18.23
2023-04-25T06:45:44.103Z,17.13
2023-04-25T06:48:12.025Z,15.60
2023-04-25T06:50:39.511Z,15.97
2023-04-25T06:53:06.443Z,12.50
2023-04-25T06:55:33.295Z,14.03
2023-04-25T06:58:00.150Z,15.13
2023-04-25T07:00:27.234Z,13.67
2023-04-25T07:02:54.159Z,14.57
2023-04-25T07:05:21.395Z,14.23
2023-04-25T07:07:48.225Z,14.70
2023-04-25T07:10:15.022Z,18.50
2023-04-25T07:12:41.791Z,14.70
2023-04-25T07:15:11.068Z,14.63
2023-04-25T07:17:38.272Z,15.73
2023-04-25T07:20:07.062Z,13.53
2023-04-25T07:22:38.340Z,13.97
2023-04-25T07:25:05.604Z,13.17
2023-04-25T07:27:32.541Z,13.20
2023-04-25T07:29:59.405Z,12.03
2023-04-25T07:32:28.434Z,10.80
2023-04-25T07:34:55.378Z,11.20
2023-04-25T07:37:22.367Z,11.00
2023-04-25T07:39:49.464Z,11.80
2023-04-25T07:42:16.391Z,14.60
2023-04-25T07:44:43.754Z,11.17
2023-04-25T07:47:11.314Z,12.10
2023-04-25T07:49:38.620Z,10.37
2023-04-25T07:52:07.185Z,11.10
2023-04-25T07:54:34.329Z,14.87
2023-04-25T07:57:01.499Z,10.90
2023-04-25T07:59:30.246Z,12.17
2023-04-25T08:01:58.738Z,9.57
2023-04-25T08:04:27.886Z,10.00
2023-04-25T08:06:57.855Z,10.30
2023-04-25T08:09:25.045Z,9.47
2023-04-25T08:11:51.928Z,10.03
2023-04-25T08:14:18.860Z,11.87
2023-04-25T08:16:45.794Z,9.73
2023-04-25T08:19:13.036Z,8.90
2023-04-25T08:21:39.874Z,8.43
2023-04-25T08:24:07.028Z,8.88
2023-04-25T08:26:35.040Z,8.50
2023-04-25T08:29:01.948Z,8.50
2023-04-25T08:31:28.825Z,7.57
2023-04-25T08:33:56.361Z,7.78
2023-04-25T08:36:37.829Z,6.77
2023-04-25T08:39:06.073Z,7.60
2023-04-25T08:41:33.283Z,7.30
2023-04-25T08:44:02.130Z,7.67
2023-04-25T08:46:32.331Z,7.23
2023-04-25T08:49:02.912Z,9.73
2023-04-25T08:51:33.185Z,7.67
2023-04-25T08:56:48.978Z,8.70
2023-04-25T08:59:15.940Z,8.57
2023-04-25T09:01:42.910Z,7.87
2023-04-25T09:04:10.815Z,8.90
2023-04-25T09:06:37.926Z,7.93
2023-04-25T09:09:09.686Z,9.00
2023-04-25T09:11:37.727Z,8.57
2023-04-25T09:14:21.438Z,8.83
2023-04-25T09:16:57.353Z,8.23
2023-04-25T09:19:41.034Z,8.57
2023-04-25T09:22:12.654Z,8.03
2023-04-25T09:24:45.445Z,7.50
2023-04-25T09:27:19.242Z,8.00
2023-04-25T09:29:47.375Z,7.60
2023-04-25T09:32:22.725Z,7.87
2023-04-25T09:34:51.905Z,9.80
2023-04-25T09:37:29.351Z,8.77
2023-04-25T09:40:00.167Z,8.10
2023-04-25T09:43:17.016Z,7.87
2023-04-25T09:45:48.222Z,8.73
2023-04-25T09:48:20.164Z,8.93
2023-04-25T09:51:04.594Z,10.07
2023-04-25T09:53:33.284Z,7.80
2023-04-25T09:56:01.708Z,7.00
2023-04-25T09:58:32.820Z,9.03
2023-04-25T10:01:06.131Z,8.97
2023-04-25T10:03:37.773Z,8.27
2023-04-25T10:06:09.704Z,9.43
2023-04-25T10:08:38.701Z,8.63
2023-04-25T10:11:08.191Z,11.23
2023-04-25T10:13:39.811Z,9.13
2023-04-25T10:19:48.977Z,9.97
2023-04-25T10:22:27.107Z,9.40
2023-04-25T10:24:54.442Z,13.47
2023-04-25T10:27:21.603Z,12.83
2023-04-25T10:30:05.689Z,11.67
2023-04-25T10:32:36.384Z,10.50
2023-04-25T10:35:19.720Z,9.40
2023-04-25T10:38:10.049Z,11.50
2023-04-25T10:40:37.709Z,11.50
2023-04-25T10:43:32.549Z,11.33
2023-04-25T10:46:02.915Z,10.40
2023-04-25T10:48:35.632Z,11.40
2023-04-25T10:51:16.648Z,11.23
2023-04-25T10:53:57.470Z,12.17
2023-04-25T10:56:28.225Z,11.10
2023-04-25T10:59:12.786Z,11.20
2023-04-25T11:01:45.226Z,12.17
2023-04-25T11:04:21.543Z,11.17
2023-04-25T11:07:07.115Z,12.60
2023-04-25T11:09:41.184Z,11.27
2023-04-25T11:12:15.287Z,10.03
2023-04-25T11:14:42.284Z,9.17
2023-04-25T11:17:10.182Z,12.70
2023-04-25T11:19:37.226Z,11.13
2023-04-25T11:22:18.245Z,9.30
2023-04-25T11:27:28.034Z,10.67
2023-04-25T11:29:54.949Z,11.73
2023-04-25T11:32:22.540Z,12.67
2023-04-25T11:34:49.846Z,10.87
2023-04-25T11:37:17.168Z,8.93
2023-04-25T11:39:46.353Z,10.23
2023-04-25T11:42:16.488Z,12.77
2023-04-25T11:44:43.792Z,9.73
2023-04-25T11:47:10.856Z,11.13
2023-04-25T11:49:37.987Z,10.23
2023-04-25T11:52:08.164Z,11.57
2023-04-25T11:54:38.754Z,9.60
2023-04-25T11:57:05.844Z,12.17
2023-04-25T11:59:33.419Z,11.00
2023-04-25T12:02:02.752Z,8.27
2023-04-25T12:04:34.944Z,10.13
2023-04-25T12:07:02.813Z,9.30
2023-04-25T12:09:34.666Z,9.40
2023-04-25T12:12:06.686Z,8.43
2023-04-25T12:14:35.925Z,8.20
2023-04-25T12:17:05.310Z,10.27
2023-04-25T12:19:47.611Z,8.87
2023-04-25T12:22:22.467Z,9.10
2023-04-25T12:24:49.730Z,7.97
2023-04-25T12:27:19.770Z,7.33
2023-04-25T12:29:56.218Z,10.20
2023-04-25T12:32:23.616Z,6.30
2023-04-25T12:34:50.810Z,7.13
2023-04-25T12:37:18.233Z,7.43
2023-04-25T12:39:45.192Z,7.37
2023-04-25T12:42:15.043Z,7.63
2023-04-25T12:44:42.448Z,6.70
2023-04-25T12:47:09.685Z,7.13
2023-04-25T12:49:36.578Z,7.53
2023-04-25T12:52:03.416Z,8.27
2023-04-25T12:54:30.291Z,6.43
2023-04-25T12:56:57.789Z,6.50
2023-04-25T12:59:24.632Z,6.40
2023-04-25T13:01:51.554Z,8.27
2023-04-25T13:04:21.319Z,7.10
2023-04-25T13:06:48.947Z,6.23
2023-04-25T13:09:16.715Z,7.17
2023-04-25T13:11:43.919Z,7.00
2023-04-25T13:14:10.814Z,6.83
2023-04-25T13:16:37.851Z,7.83
2023-04-25T13:19:04.793Z,6.97
2023-04-25T13:21:33.558Z,6.70
2023-04-25T13:24:19.168Z,8.43
2023-04-25T13:26:45.978Z,7.30
2023-04-25T13:29:12.795Z,8.37
2023-04-25T13:31:39.711Z,6.33
2023-04-25T13:34:06.821Z,6.87
2023-04-25T13:36:33.924Z,7.60
2023-04-25T13:39:00.927Z,5.23
2023-04-25T13:41:27.986Z,5.77
2023-04-25T13:43:55.756Z,5.40
2023-04-25T13:46:40.916Z,6.57
2023-04-25T13:49:16.928Z,8.13
2023-04-25T13:51:44.076Z,5.97
2023-04-25T13:54:11.044Z,5.90
2023-04-25T13:56:37.949Z,6.87
2023-04-25T13:59:04.767Z,6.43
2023-04-25T14:01:35.367Z,6.93
2023-04-25T14:04:04.829Z,6.20
2023-04-25T14:06:33.094Z,7.70
2023-04-25T14:09:02.364Z,8.23
2023-04-25T14:11:29.247Z,7.93
2023-04-25T14:13:56.247Z,7.00
2023-04-25T14:16:24.397Z,8.90
2023-04-25T14:18:51.353Z,7.13
2023-04-25T14:21:18.344Z,7.93
2023-04-25T14:23:45.482Z,7.77
2023-04-25T14:26:13.797Z,7.47
2023-04-25T14:28:40.823Z,6.80
2023-04-25T14:31:13.683Z,7.17
2023-04-25T14:33:43.795Z,7.23
2023-04-25T14:36:36.450Z,10.07
2023-04-25T14:39:06.327Z,11.97
2023-04-25T14:45:02.864Z,11.00
2023-04-25T14:47:45.105Z,9.77
2023-04-25T14:50:24.341Z,8.53
2023-04-25T14:53:05.499Z,8.03
2023-04-25T14:55:47.480Z,8.97
2023-04-25T14:58:19.113Z,8.10
2023-04-25T15:00:47.958Z,8.90
2023-04-25T15:03:20.747Z,9.43
2023-04-25T15:09:25.136Z,8.93
2023-04-25T15:12:06.680Z,9.37
2023-04-25T15:14:40.072Z,8.83
2023-04-25T15:17:07.320Z,7.27
2023-04-25T15:19:34.171Z,8.23
2023-04-25T15:22:07.812Z,10.30
2023-04-25T15:24:35.376Z,8.10
2023-04-25T15:27:02.430Z,10.93
2023-04-25T15:29:30.879Z,9.70
2023-04-25T15:31:58.543Z,10.50
2023-04-25T15:34:25.494Z,12.47
2023-04-25T15:36:52.343Z,11.77
2023-04-25T15:39:19.262Z,12.00
2023-04-25T15:41:46.076Z,9.03
2023-04-25T15:44:13.001Z,11.70
2023-04-25T15:46:40.088Z,10.53
2023-04-25T15:49:07.219Z,10.93
2023-04-25T15:51:35.949Z,9.40
2023-04-25T15:54:04.239Z,10.13
2023-04-25T15:56:31.528Z,9.47
2023-04-25T15:58:58.648Z,9.40
2023-04-25T16:01:31.439Z,11.17
2023-04-25T16:04:13.532Z,9.85
2023-04-25T16:06:53.166Z,12.33
2023-04-25T16:09:20.160Z,13.27
2023-04-25T16:11:49.485Z,10.10
2023-04-25T16:14:23.238Z,10.50
2023-04-25T16:16:50.541Z,9.90
2023-04-25T16:19:21.271Z,12.03
2023-04-25T16:21:48.459Z,12.80
2023-04-25T16:24:15.868Z,10.47
2023-04-25T16:26:43.681Z,14.00
2023-04-25T16:29:14.762Z,12.05
2023-04-25T16:31:42.224Z,10.93
2023-04-25T16:34:09.441Z,10.07
2023-04-25T16:36:36.780Z,11.60
2023-04-25T16:39:03.967Z,11.63
2023-04-25T16:41:31.428Z,9.27
2023-04-25T16:43:58.325Z,9.77
2023-04-25T16:46:25.186Z,10.13
2023-04-25T16:48:52.328Z,10.17
2023-04-25T16:51:19.764Z,11.77
2023-04-25T16:53:48.484Z,10.53
2023-04-25T16:56:15.694Z,11.93
2023-04-25T16:58:43.633Z,14.50
2023-04-25T17:01:16.010Z,12.87
2023-04-25T17:03:44.781Z,11.13
2023-04-25T17:06:12.396Z,10.33
2023-04-25T17:08:39.275Z,10.93
2023-04-25T17:11:06.276Z,10.53
2023-04-25T17:13:33.223Z,11.10
2023-04-25T17:16:01.038Z,11.67
2023-04-25T17:18:28.308Z,10.87
2023-04-25T17:20:55.764Z,12.07
2023-04-25T17:23:22.752Z,11.80
2023-04-25T17:25:49.681Z,10.37
2023-04-25T17:28:16.650Z,10.77
2023-04-25T17:30:44.894Z,14.10
2023-04-25T17:33:11.890Z,11.50
2023-04-25T17:35:41.912Z,10.27
2023-04-25T17:38:10.340Z,11.63
2023-04-25T17:40:37.476Z,10.80
2023-04-25T17:43:04.340Z,14.30
2023-04-25T17:45:34.720Z,11.60
2023-04-25T17:48:02.579Z,11.30
2023-04-25T17:50:29.655Z,11.80
2023-04-25T17:52:56.482Z,11.93
2023-04-25T17:55:24.940Z,11.07
2023-04-25T17:57:52.910Z,14.13
2023-04-25T18:00:19.966Z,12.87
2023-04-25T18:02:48.627Z,11.67
2023-04-25T18:05:16.647Z,13.70
2023-04-25T18:07:43.776Z,11.63
2023-04-25T18:10:11.937Z,10.57
2023-04-25T18:12:39.182Z,11.33
2023-04-25T18:15:07.887Z,11.70
2023-04-25T18:17:39.923Z,12.40
2023-04-25T18:20:16.027Z,11.70
2023-04-25T18:22:44.562Z,12.87
2023-04-25T18:25:14.219Z,16.20
2023-04-25T18:27:42.329Z,13.07
2023-04-25T18:30:11.371Z,12.40
2023-04-25T18:32:38.574Z,11.07
2023-04-25T18:35:06.321Z,12.07
2023-04-25T18:37:33.547Z,14.60
2023-04-25T18:40:06.690Z,12.43
2023-04-25T18:42:34.926Z,13.77
2023-04-25T18:45:01.785Z,13.17
2023-04-25T18:47:28.875Z,15.30
2023-04-25T18:49:55.705Z,14.13
2023-04-25T18:52:23.594Z,12.77
2023-04-25T18:54:58.220Z,13.07
2023-04-25T18:57:25.187Z,14.00
2023-04-25T18:59:52.786Z,18.07
2023-04-25T19:02:20.229Z,13.50
2023-04-25T19:04:47.257Z,15.13
2023-04-25T19:07:15.022Z,15.97
2023-04-25T19:09:41.939Z,16.23
2023-04-25T19:12:09.940Z,16.20
2023-04-25T19:14:36.905Z,15.43
2023-04-25T19:17:04.648Z,16.40
2023-04-25T19:19:32.662Z,17.37
2023-04-25T19:21:59.834Z,15.47
2023-04-25T19:24:30.041Z,19.87
2023-04-25T19:26:57.410Z,17.90
2023-04-25T19:29:24.232Z,15.30
2023-04-25T19:31:55.664Z,18.93
2023-04-25T19:34:31.808Z,17.60
2023-04-25T19:36:59.862Z,16.87
2023-04-25T19:39:27.804Z,16.33
2023-04-25T19:42:04.285Z,18.40
2023-04-25T19:44:31.239Z,17.30
2023-04-25T19:46:59.725Z,18.50
2023-04-25T19:49:27.145Z,16.60
2023-04-25T19:51:54.256Z,19.37
2023-04-25T19:54:23.239Z,17.57
2023-04-25T19:56:51.042Z,20.53
2023-04-25T19:59:24.103Z,19.17
2023-04-25T20:01:51.199Z,16.50
2023-04-25T20:04:19.024Z,16.00
2023-04-25T20:06:58.226Z,17.47
2023-04-25T20:09:25.340Z,16.00
2023-04-25T20:11:52.958Z,16.00
2023-04-25T20:14:33.290Z,18.27
2023-04-25T20:17:02.786Z,15.43
2023-04-25T20:19:29.581Z,15.73
2023-04-25T20:21:57.002Z,15.63
2023-04-25T20:24:23.985Z,16.30
2023-04-25T20:27:18.888Z,15.47
2023-04-25T20:29:46.216Z,16.00
2023-04-25T20:32:13.198Z,16.70
2023-04-25T20:34:40.147Z,16.57
2023-04-25T20:37:08.489Z,21.40
2023-04-25T20:39:35.929Z,17.50
2023-04-25T20:42:03.112Z,20.20
2023-04-25T20:44:30.484Z,18.70
2023-04-25T20:46:57.390Z,17.07
2023-04-25T20:49:24.209Z,18.23
2023-04-25T20:51:51.051Z,16.30
2023-04-25T20:54:18.072Z,15.93
2023-04-25T20:56:45.384Z,18.10
2023-04-25T20:59:13.084Z,16.83
2023-04-25T21:01:40.230Z,18.80
2023-04-25T21:04:07.522Z,16.43
2023-04-25T21:06:34.898Z,17.07
2023-04-25T21:09:04.117Z,19.93
2023-04-25T21:11:31.246Z,16.93
2023-04-25T21:13:58.181Z,14.50
2023-04-25T21:16:25.059Z,16.50
2023-04-25T21:18:52.111Z,15.43
2023-04-25T21:21:19.256Z,15.10
2023-04-25T21:23:46.143Z,16.17
2023-04-25T21:26:12.923Z,15.60
2023-04-25T21:28:39.806Z,16.37
2023-04-25T21:31:06.682Z,18.30
2023-04-25T21:33:33.503Z,16.33
2023-04-25T21:36:01.184Z,17.03
2023-04-25T21:38:28.099Z,19.27
2023-04-25T21:46:26.578Z,22.13
2023-04-25T21:48:54.149Z,22.33
2023-04-25T21:51:34.112Z,23.07
2023-04-25T21:54:05.314Z,22.90
2023-04-25T21:56:33.172Z,22.87
2023-04-25T21:59:00.315Z,24.80
2023-04-25T22:01:27.961Z,25.17
2023-04-25T22:03:55.751Z,27.23
2023-04-25T22:06:22.862Z,25.43
2023-04-25T22:08:50.343Z,26.03
2023-04-25T22:11:17.560Z,26.83
2023-04-25T22:13:45.586Z,23.97
2023-04-25T22:16:12.679Z,24.20
2023-04-25T22:18:40.511Z,24.53
2023-04-25T22:21:08.647Z,23.10
2023-04-25T22:23:37.222Z,25.53
2023-04-25T22:26:04.737Z,25.77
2023-04-25T22:28:33.107Z,24.60
2023-04-25T22:31:00.115Z,26.23
2023-04-25T22:33:27.446Z,17.80
2023-04-25T22:35:54.324Z,20.33
2023-04-25T22:38:21.532Z,15.80
2023-04-25T22:40:48.498Z,12.77
2023-04-25T22:43:15.934Z,13.83
2023-04-25T22:45:43.002Z,11.93
2023-04-25T22:48:10.024Z,10.93
2023-04-25T22:50:39.768Z,13.80
2023-04-25T22:53:13.308Z,14.13
2023-04-25T22:55:40.181Z,12.57
2023-04-25T22:58:10.274Z,12.03
2023-04-25T23:00:37.626Z,12.90
2023-04-25T23:03:05.845Z,11.30
2023-04-25T23:05:33.214Z,10.13
2023-04-25T23:08:00.108Z,12.07
2023-04-25T23:10:28.324Z,12.37
2023-04-25T23:12:58.079Z,14.13
2023-04-25T23:15:27.554Z,9.43
2023-04-25T23:17:54.897Z,10.30
2023-04-25T23:20:21.860Z,11.03
2023-04-25T23:22:48.955Z,13.47
2023-04-25T23:25:18.277Z,12.43
2023-04-25T23:27:45.265Z,12.87
2023-04-25T23:30:12.505Z,13.17
2023-04-25T23:32:42.395Z,13.60
2023-04-25T23:35:10.267Z,13.70
2023-04-25T23:37:38.414Z,11.17
2023-04-25T23:40:12.891Z,15.43
2023-04-25T23:42:44.147Z,10.43
2023-04-25T23:45:11.460Z,10.60
2023-04-25T23:47:38.552Z,12.80
2023-04-25T23:50:09.098Z,17.80
2023-04-25T23:52:36.116Z,12.67
2023-04-25T23:55:05.404Z,12.40
2023-04-25T23:57:32.731Z,14.00
